createdAt,value
2023-02-15T00:00:13.194Z,200.30
2023-02-15T00:02:41.815Z,145.45
2023-02-15T00:05:10.927Z,186.10
2023-02-15T00:07:40.519Z,208.45
2023-02-15T00:10:09.752Z,223.02
2023-02-15T00:12:37.991Z,182.82
2023-02-15T00:15:06.597Z,102.65
2023-02-15T00:17:34.817Z,142.38
2023-02-15T00:20:03.210Z,68.70
2023-02-15T00:22:31.414Z,136.48
2023-02-15T00:25:01.096Z,225.10
2023-02-15T00:27:29.280Z,144.40
2023-02-15T00:29:57.526Z,114.93
2023-02-15T00:32:25.743Z,117.25
2023-02-15T00:34:53.927Z,193.13
2023-02-15T00:37:22.223Z,246.80
2023-02-15T00:39:50.397Z,197.88
2023-02-15T00:42:20.011Z,190.93
2023-02-15T00:44:48.218Z,137.13
2023-02-15T00:47:16.410Z,173.80
2023-02-15T00:49:44.664Z,210.82
2023-02-15T00:52:12.838Z,154.85
2023-02-15T00:54:41.014Z,170.10
2023-02-15T00:57:09.237Z,207.80
2023-02-15T00:59:38.832Z,258.08
2023-02-15T01:02:07.231Z,189.55
2023-02-15T01:04:35.625Z,178.40
2023-02-15T01:07:04.645Z,224.10
2023-02-15T01:09:32.857Z,239.57
2023-02-15T01:12:01.004Z,175.25
2023-02-15T01:14:29.243Z,131.10
2023-02-15T01:16:58.923Z,207.88
2023-02-15T01:19:27.150Z,140.40
2023-02-15T01:21:55.336Z,205.80
2023-02-15T01:24:23.548Z,169.18
2023-02-15T01:26:51.725Z,141.80
2023-02-15T01:29:20.039Z,148.55
2023-02-15T01:31:48.265Z,135.68
2023-02-15T01:34:17.876Z,160.07
2023-02-15T01:36:46.067Z,346.05
2023-02-15T01:39:14.261Z,249.63
2023-02-15T01:41:42.475Z,191.02
2023-02-15T01:44:43.892Z,146.65
2023-02-15T01:47:14.774Z,127.38
2023-02-15T01:49:46.873Z,187.55
2023-02-15T01:52:19.126Z,243.82
2023-02-15T01:54:49.236Z,169.97
2023-02-15T01:57:21.485Z,83.43
2023-02-15T01:59:55.002Z,145.70
2023-02-15T02:02:25.331Z,139.07
2023-02-15T02:04:57.897Z,174.23
2023-02-15T02:07:30.356Z,147.43
2023-02-15T02:09:58.568Z,92.57
2023-02-15T02:12:28.129Z,82.22
2023-02-15T02:14:57.129Z,190.40
2023-02-15T02:17:40.310Z,95.90
2023-02-15T02:20:32.273Z,102.30
2023-02-15T02:23:27.084Z,62.47
2023-02-15T02:26:39.216Z,126.82
2023-02-15T02:29:42.930Z,115.63
2023-02-15T02:32:46.584Z,129.15
2023-02-15T02:35:21.024Z,110.43
2023-02-15T02:37:55.718Z,113.88
2023-02-15T02:40:33.191Z,65.88
2023-02-15T02:43:07.717Z,121.88
2023-02-15T02:45:43.560Z,41.25
2023-02-15T02:48:17.527Z,46.55
2023-02-15T02:50:47.176Z,44.88
2023-02-15T02:53:15.395Z,117.20
2023-02-15T02:55:46.641Z,80.47
2023-02-15T02:58:19.378Z,129.90
2023-02-15T03:00:51.478Z,116.72
2023-02-15T03:03:28.165Z,139.85
2023-02-15T03:06:01.886Z,111.22
2023-02-15T03:08:37.804Z,143.45
2023-02-15T03:11:06.897Z,139.20
2023-02-15T03:13:36.174Z,104.00
2023-02-15T03:16:24.665Z,52.33
2023-02-15T03:18:58.151Z,144.60
2023-02-15T03:21:35.271Z,80.40
2023-02-15T03:24:08.316Z,87.22
2023-02-15T03:26:38.289Z,113.47
2023-02-15T03:29:08.627Z,95.68
2023-02-15T03:31:42.673Z,111.68
2023-02-15T03:34:13.600Z,136.77
2023-02-15T03:36:48.714Z,119.38
2023-02-15T03:39:23.009Z,67.47
2023-02-15T03:41:58.886Z,122.35
2023-02-15T03:44:31.515Z,160.20
2023-02-15T03:47:06.517Z,45.17
2023-02-15T03:49:43.317Z,51.50
2023-02-15T03:52:15.278Z,62.55
2023-02-15T03:54:44.538Z,72.57
2023-02-15T03:57:33.402Z,38.97
2023-02-15T04:00:21.648Z,42.33
2023-02-15T04:03:07.045Z,130.75
2023-02-15T04:05:35.427Z,100.22
2023-02-15T04:08:05.412Z,50.95
2023-02-15T04:10:50.961Z,67.18
2023-02-15T04:13:19.149Z,110.13
2023-02-15T04:16:05.364Z,53.25
2023-02-15T04:18:52.813Z,47.45
2023-02-15T04:21:39.601Z,37.78
2023-02-15T04:24:27.239Z,102.88
2023-02-15T04:26:55.505Z,111.22
2023-02-15T04:29:24.775Z,75.57
2023-02-15T04:31:53.504Z,53.22
2023-02-15T04:34:21.791Z,67.07
2023-02-15T04:36:51.219Z,34.53
2023-02-15T04:39:21.427Z,74.75
2023-02-15T04:41:49.861Z,71.65
2023-02-15T04:44:18.228Z,153.27
2023-02-15T04:46:46.565Z,78.30
2023-02-15T04:49:14.902Z,39.15
2023-02-15T04:51:43.120Z,89.35
2023-02-15T04:54:11.472Z,38.50
2023-02-15T04:56:41.534Z,102.78
2023-02-15T04:59:12.282Z,58.95
2023-02-15T05:01:40.900Z,64.22
2023-02-15T05:04:09.331Z,91.68
2023-02-15T05:06:37.617Z,85.45
2023-02-15T05:09:05.907Z,54.92
2023-02-15T05:11:35.250Z,45.90
2023-02-15T05:14:05.006Z,114.50
2023-02-15T05:16:33.340Z,48.15
2023-02-15T05:19:02.004Z,43.05
2023-02-15T05:21:30.289Z,108.70
2023-02-15T05:23:58.517Z,40.72
2023-02-15T05:26:44.694Z,67.45
2023-02-15T05:29:14.315Z,48.03
2023-02-15T05:31:43.142Z,52.10
2023-02-15T05:34:11.532Z,68.22
2023-02-15T05:36:39.762Z,66.05
2023-02-15T05:39:09.393Z,141.55
2023-02-15T05:41:37.574Z,129.43
2023-02-15T05:44:06.431Z,83.15
2023-02-15T05:46:36.144Z,144.75
2023-02-15T05:49:04.328Z,81.70
2023-02-15T05:51:32.607Z,56.00
2023-02-15T05:54:06.737Z,56.47
2023-02-15T05:56:35.211Z,217.88
2023-02-15T05:59:03.607Z,98.57
2023-02-15T06:01:31.942Z,167.13
2023-02-15T06:04:01.597Z,56.58
2023-02-15T06:06:29.839Z,40.58
2023-02-15T06:08:58.120Z,130.43
2023-02-15T06:11:26.340Z,139.25
2023-02-15T06:13:54.599Z,106.93
2023-02-15T06:16:22.998Z,176.07
2023-02-15T06:18:53.648Z,84.47
2023-02-15T06:21:23.439Z,84.82
2023-02-15T06:23:51.643Z,66.20
2023-02-15T06:26:19.886Z,69.18
2023-02-15T06:28:48.101Z,83.35
2023-02-15T06:31:16.396Z,72.93
2023-02-15T06:33:44.670Z,68.10
2023-02-15T06:36:13.591Z,184.70
2023-02-15T06:38:43.271Z,54.10
2023-02-15T06:41:11.447Z,179.82
2023-02-15T06:43:41.021Z,101.55
2023-02-15T06:46:09.390Z,78.50
2023-02-15T06:48:37.602Z,128.27
2023-02-15T06:51:05.855Z,138.45
2023-02-15T06:53:34.647Z,123.53
2023-02-15T06:56:07.826Z,84.50
2023-02-15T07:01:04.421Z,70.55
2023-02-15T07:03:33.661Z,85.30
2023-02-15T07:06:04.253Z,76.28
2023-02-15T07:08:32.623Z,35.33
2023-02-15T07:11:20.923Z,51.40
2023-02-15T07:13:49.513Z,149.52
2023-02-15T07:16:18.158Z,176.07
2023-02-15T07:18:46.376Z,105.75
2023-02-15T07:21:14.776Z,61.50
2023-02-15T07:23:43.273Z,153.50
2023-02-15T07:26:11.546Z,139.85
2023-02-15T07:28:39.828Z,185.20
2023-02-15T07:31:09.634Z,183.95
2023-02-15T07:33:38.069Z,173.52
2023-02-15T07:36:07.384Z,170.45
2023-02-15T07:38:37.561Z,179.00
2023-02-15T07:41:07.823Z,154.95
2023-02-15T07:43:37.509Z,95.05
2023-02-15T07:46:10.069Z,89.15
2023-02-15T07:48:39.250Z,183.50
2023-02-15T07:51:09.799Z,146.75
2023-02-15T07:53:38.631Z,140.07
2023-02-15T07:56:09.798Z,135.85
2023-02-15T07:58:53.691Z,165.25
2023-02-15T08:01:25.126Z,159.43
2023-02-15T08:03:54.517Z,116.45
2023-02-15T08:06:23.449Z,147.32
2023-02-15T08:08:51.688Z,97.82
2023-02-15T08:11:30.175Z,85.32
2023-02-15T08:14:01.509Z,109.40
2023-02-15T08:16:33.496Z,96.57
2023-02-15T08:19:03.407Z,83.22
2023-02-15T08:21:32.871Z,100.10
2023-02-15T08:24:01.505Z,77.43
2023-02-15T08:26:30.787Z,74.25
2023-02-15T08:28:59.768Z,107.80
2023-02-15T08:31:28.953Z,101.32
2023-02-15T08:33:59.113Z,89.45
2023-02-15T08:36:29.726Z,98.95
2023-02-15T08:38:59.883Z,108.57
2023-02-15T08:41:30.550Z,87.82
2023-02-15T08:44:00.528Z,80.50
2023-02-15T08:46:30.493Z,113.65
2023-02-15T08:49:00.657Z,102.75
2023-02-15T08:51:30.376Z,103.28
2023-02-15T08:53:59.843Z,93.72
2023-02-15T08:56:30.093Z,96.32
2023-02-15T08:58:58.584Z,123.32
2023-02-15T09:01:29.175Z,140.43
2023-02-15T09:04:01.057Z,99.10
2023-02-15T09:06:30.043Z,111.53
2023-02-15T09:08:59.275Z,103.82
2023-02-15T09:11:29.330Z,106.75
2023-02-15T09:13:58.829Z,101.82
2023-02-15T09:16:30.495Z,84.60
2023-02-15T09:19:02.143Z,113.20
2023-02-15T09:21:31.440Z,82.47
2023-02-15T09:24:02.056Z,100.63
2023-02-15T09:26:32.343Z,121.35
2023-02-15T09:29:02.486Z,124.85
2023-02-15T09:31:32.432Z,108.32
2023-02-15T09:34:02.988Z,96.50
2023-02-15T09:36:33.421Z,98.25
2023-02-15T09:39:07.023Z,170.93
2023-02-15T09:41:51.862Z,83.25
2023-02-15T09:44:26.302Z,119.50
2023-02-15T09:47:10.521Z,185.23
2023-02-15T09:49:50.148Z,162.43
2023-02-15T09:52:37.581Z,114.57
2023-02-15T09:55:34.770Z,111.50
2023-02-15T09:58:13.981Z,90.28
2023-02-15T10:00:51.800Z,106.95
2023-02-15T10:03:32.657Z,93.25
2023-02-15T10:06:27.104Z,143.55
2023-02-15T10:09:07.813Z,87.40
2023-02-15T10:11:52.254Z,157.18
2023-02-15T10:14:40.517Z,116.72
2023-02-15T10:17:31.598Z,140.75
2023-02-15T10:20:12.162Z,88.30
2023-02-15T10:23:00.214Z,125.30
2023-02-15T10:25:40.182Z,142.55
2023-02-15T10:28:14.056Z,134.82
2023-02-15T10:30:49.141Z,95.22
2023-02-15T10:33:36.472Z,73.97
2023-02-15T10:36:24.037Z,129.38
2023-02-15T10:39:03.702Z,105.05
2023-02-15T10:41:42.611Z,92.57
2023-02-15T10:44:22.010Z,112.22
2023-02-15T10:47:05.487Z,100.78
2023-02-15T10:52:27.249Z,85.07
2023-02-15T10:55:10.156Z,103.00
2023-02-15T10:57:48.956Z,90.18
2023-02-15T11:00:23.804Z,120.45
2023-02-15T11:03:14.849Z,88.10
2023-02-15T11:05:50.169Z,82.82
2023-02-15T11:08:19.817Z,52.92
2023-02-15T11:10:53.141Z,92.70
2023-02-15T11:13:24.584Z,71.13
2023-02-15T11:15:55.948Z,82.38
2023-02-15T11:18:30.346Z,67.43
2023-02-15T11:21:04.234Z,91.90
2023-02-15T11:23:34.641Z,88.70
2023-02-15T11:26:07.000Z,66.85
2023-02-15T11:28:41.466Z,63.93
2023-02-15T11:31:18.086Z,60.53
2023-02-15T11:33:51.349Z,54.83
2023-02-15T11:38:57.202Z,75.85
2023-02-15T11:41:33.652Z,84.97
2023-02-15T11:44:08.693Z,79.18
2023-02-15T11:46:38.603Z,80.15
2023-02-15T11:49:23.189Z,96.00
2023-02-15T11:51:52.824Z,117.65
2023-02-15T11:54:26.184Z,89.57
2023-02-15T11:56:57.559Z,105.40
2023-02-15T11:59:33.357Z,44.22
2023-02-15T12:02:03.961Z,51.88
2023-02-15T12:04:36.834Z,54.67
2023-02-15T12:07:17.673Z,63.90
2023-02-15T12:09:53.088Z,83.18
2023-02-15T12:12:29.302Z,95.93
2023-02-15T12:14:59.173Z,73.05
2023-02-15T12:17:30.982Z,59.70
2023-02-15T12:20:03.313Z,40.78
2023-02-15T12:22:37.047Z,45.10
2023-02-15T12:25:21.868Z,66.38
2023-02-15T12:27:52.480Z,41.78
2023-02-15T12:30:25.291Z,61.72
2023-02-15T12:32:55.815Z,38.80
2023-02-15T12:35:31.769Z,60.05
2023-02-15T12:38:05.484Z,44.08
2023-02-15T12:40:38.726Z,34.05
2023-02-15T12:46:16.793Z,38.97
2023-02-15T12:48:45.720Z,39.50
2023-02-15T12:51:17.516Z,37.10
2023-02-15T12:53:47.541Z,42.83
2023-02-15T12:56:28.610Z,53.25
2023-02-15T12:59:09.890Z,47.63
2023-02-15T13:01:38.422Z,44.38
2023-02-15T13:04:08.396Z,38.65
2023-02-15T13:06:38.806Z,43.88
2023-02-15T13:09:16.128Z,43.63
2023-02-15T13:11:45.974Z,38.78
2023-02-15T13:14:22.848Z,49.95
2023-02-15T13:16:54.142Z,40.65
2023-02-15T13:19:30.691Z,40.67
2023-02-15T13:22:02.384Z,40.20
2023-02-15T13:24:35.897Z,108.28
2023-02-15T13:27:14.912Z,379.70
2023-02-15T13:29:48.851Z,228.93
2023-02-15T13:32:27.464Z,502.63
2023-02-15T13:34:59.187Z,321.02
2023-02-15T13:37:46.348Z,341.55
2023-02-15T13:40:20.622Z,400.13
2023-02-15T13:42:55.538Z,93.05
2023-02-15T13:45:35.850Z,51.35
2023-02-15T13:48:15.879Z,39.22
2023-02-15T13:51:01.615Z,36.13
2023-02-15T13:53:48.921Z,34.75
2023-02-15T13:56:22.866Z,31.33
2023-02-15T13:59:22.298Z,29.80
2023-02-15T14:01:57.905Z,34.20
2023-02-15T14:04:42.464Z,30.35
2023-02-15T14:07:31.232Z,33.97
2023-02-15T14:10:14.388Z,35.00
2023-02-15T14:12:56.940Z,31.42
2023-02-15T14:15:37.286Z,33.87
2023-02-15T14:18:19.225Z,32.42
2023-02-15T14:20:58.601Z,30.42
2023-02-15T14:23:40.528Z,32.47
2023-02-15T14:26:14.181Z,35.55
2023-02-15T14:28:49.991Z,32.17
2023-02-15T14:31:31.139Z,33.78
2023-02-15T14:34:01.263Z,34.05
2023-02-15T14:36:31.623Z,42.60
2023-02-15T14:39:34.927Z,43.35
2023-02-15T14:42:10.429Z,39.08
2023-02-15T14:44:44.556Z,38.55
2023-02-15T14:47:18.756Z,39.53
2023-02-15T14:49:48.372Z,67.47
2023-02-15T14:52:16.648Z,36.85
2023-02-15T14:55:01.422Z,42.58
2023-02-15T14:57:36.068Z,38.67
2023-02-15T15:00:39.233Z,35.22
2023-02-15T15:03:21.087Z,30.38
2023-02-15T15:05:54.405Z,33.92
2023-02-15T15:08:35.166Z,37.42
2023-02-15T15:11:43.478Z,38.13
2023-02-15T15:14:13.608Z,35.17
2023-02-15T15:16:52.760Z,33.72
2023-02-15T15:20:00.808Z,36.38
2023-02-15T15:22:31.915Z,39.33
2023-02-15T15:25:03.760Z,42.95
2023-02-15T15:27:55.726Z,48.25
2023-02-15T15:30:49.611Z,43.47
2023-02-15T15:33:46.526Z,43.10
2023-02-15T15:36:57.535Z,46.58
2023-02-15T15:39:59.559Z,48.97
2023-02-15T15:42:39.232Z,40.65
2023-02-15T15:45:36.075Z,45.20
2023-02-15T15:48:25.814Z,36.20
2023-02-15T15:50:59.846Z,35.72
2023-02-15T15:53:31.375Z,47.67
2023-02-15T15:56:05.939Z,51.35
2023-02-15T15:58:36.332Z,35.03
2023-02-15T16:01:10.137Z,42.10
2023-02-15T16:03:38.370Z,38.13
2023-02-15T16:06:07.249Z,42.17
2023-02-15T16:08:37.874Z,36.10
2023-02-15T16:11:16.430Z,38.13
2023-02-15T16:13:45.563Z,37.67
2023-02-15T16:16:15.800Z,40.35
2023-02-15T16:18:44.506Z,38.05
2023-02-15T16:21:20.639Z,46.55
2023-02-15T16:24:08.846Z,48.35
2023-02-15T16:27:13.016Z,42.75
2023-02-15T16:29:41.472Z,59.55
2023-02-15T16:32:19.766Z,44.05
2023-02-15T16:34:55.810Z,48.38
2023-02-15T16:37:27.906Z,42.38
2023-02-15T16:39:57.297Z,50.03
2023-02-15T16:42:27.615Z,44.92
2023-02-15T16:45:01.316Z,60.80
2023-02-15T16:47:33.561Z,51.40
2023-02-15T16:50:05.033Z,54.63
2023-02-15T16:52:33.533Z,51.92
2023-02-15T16:55:04.836Z,51.95
2023-02-15T16:57:37.359Z,49.78
2023-02-15T17:00:08.322Z,49.20
2023-02-15T17:02:55.066Z,48.92
2023-02-15T17:05:25.007Z,64.55
2023-02-15T17:08:05.637Z,66.28
2023-02-15T17:10:37.270Z,56.38
2023-02-15T17:13:12.838Z,55.35
2023-02-15T17:15:42.944Z,56.15
2023-02-15T17:18:17.772Z,63.15
2023-02-15T17:20:47.422Z,71.78
2023-02-15T17:23:30.903Z,55.08
2023-02-15T17:28:33.172Z,53.70
2023-02-15T17:31:02.129Z,56.35
2023-02-15T17:33:40.395Z,71.00
2023-02-15T17:36:11.717Z,58.05
2023-02-15T17:38:41.472Z,61.92
2023-02-15T17:41:09.879Z,68.43
2023-02-15T17:43:39.524Z,62.28
2023-02-15T17:46:07.899Z,74.07
2023-02-15T17:48:38.121Z,66.97
2023-02-15T17:51:09.967Z,60.78
2023-02-15T17:53:39.153Z,64.60
2023-02-15T17:56:10.521Z,67.07
2023-02-15T17:58:42.269Z,73.75
2023-02-15T18:01:36.308Z,67.53
2023-02-15T18:04:22.376Z,62.85
2023-02-15T18:07:09.315Z,64.88
2023-02-15T18:09:54.952Z,84.65
2023-02-15T18:12:26.170Z,76.68
2023-02-15T18:14:56.809Z,117.25
2023-02-15T18:17:30.182Z,83.95
2023-02-15T18:19:58.553Z,77.90
2023-02-15T18:22:29.524Z,62.45
2023-02-15T18:24:58.062Z,60.88
2023-02-15T18:27:26.470Z,56.97
2023-02-15T18:29:56.151Z,68.38
2023-02-15T18:32:32.099Z,66.28
2023-02-15T18:35:00.860Z,64.70
2023-02-15T18:37:33.146Z,65.15
2023-02-15T18:40:04.201Z,62.47
2023-02-15T18:42:34.383Z,69.68
2023-02-15T18:45:15.248Z,60.55
2023-02-15T18:47:43.514Z,62.75
2023-02-15T18:50:12.769Z,65.18
2023-02-15T18:52:41.905Z,70.18
2023-02-15T18:55:18.985Z,59.22
2023-02-15T18:57:48.019Z,64.00
2023-02-15T19:00:20.602Z,73.03
2023-02-15T19:02:49.315Z,76.15
2023-02-15T19:05:18.454Z,67.88
2023-02-15T19:07:48.621Z,76.20
2023-02-15T19:10:19.758Z,80.90
2023-02-15T19:12:49.272Z,72.80
2023-02-15T19:15:21.967Z,72.95
2023-02-15T19:17:52.006Z,73.82
2023-02-15T19:20:22.487Z,82.95
2023-02-15T19:22:52.725Z,73.00
2023-02-15T19:25:23.333Z,84.65
2023-02-15T19:27:52.696Z,81.15
2023-02-15T19:30:27.132Z,79.95
2023-02-15T19:32:55.413Z,114.22
2023-02-15T19:35:26.615Z,78.80
2023-02-15T19:37:57.664Z,78.50
2023-02-15T19:40:28.557Z,113.20
2023-02-15T19:42:57.588Z,77.40
2023-02-15T19:45:28.892Z,95.82
2023-02-15T19:47:57.270Z,93.65
2023-02-15T19:50:27.672Z,94.35
2023-02-15T19:52:56.464Z,77.55
2023-02-15T19:55:27.277Z,80.35
2023-02-15T19:57:56.688Z,103.63
2023-02-15T20:00:28.504Z,82.78
2023-02-15T20:02:59.399Z,97.80
2023-02-15T20:05:29.332Z,114.18
2023-02-15T20:07:58.207Z,100.30
2023-02-15T20:10:29.056Z,120.88
2023-02-15T20:12:59.757Z,121.60
2023-02-15T20:15:31.447Z,119.72
2023-02-15T20:18:02.176Z,84.80
2023-02-15T20:20:34.548Z,92.82
2023-02-15T20:23:02.828Z,127.67
2023-02-15T20:25:34.221Z,109.32
2023-02-15T20:28:03.456Z,137.52
2023-02-15T20:30:34.058Z,177.43
2023-02-15T20:33:02.415Z,110.82
2023-02-15T20:35:30.888Z,133.50
2023-02-15T20:38:01.259Z,602.75
2023-02-15T20:40:32.658Z,216.32
2023-02-15T20:43:01.359Z,173.38
2023-02-15T20:45:33.110Z,153.48
2023-02-15T20:48:02.313Z,143.23
2023-02-15T20:50:33.682Z,166.93
2023-02-15T20:53:03.290Z,133.43
2023-02-15T20:55:33.491Z,119.82
2023-02-15T20:58:01.811Z,101.68
2023-02-15T21:00:33.334Z,125.22
2023-02-15T21:03:02.930Z,123.55
2023-02-15T21:05:33.716Z,101.28
2023-02-15T21:08:02.474Z,101.95
2023-02-15T21:10:33.171Z,135.50
2023-02-15T21:13:04.057Z,105.97
2023-02-15T21:15:35.428Z,118.85
2023-02-15T21:18:07.231Z,159.48
2023-02-15T21:20:37.045Z,98.93
2023-02-15T21:23:07.577Z,145.20
2023-02-15T21:25:37.808Z,89.15
2023-02-15T21:28:08.400Z,115.75
2023-02-15T21:30:38.100Z,126.50
2023-02-15T21:33:07.518Z,154.82
2023-02-15T21:35:37.715Z,142.43
2023-02-15T21:38:07.439Z,102.50
2023-02-15T21:40:35.842Z,100.13
2023-02-15T21:43:21.664Z,181.43
2023-02-15T21:46:09.022Z,207.43
2023-02-15T21:48:37.374Z,134.60
2023-02-15T21:51:23.765Z,130.80
2023-02-15T21:53:52.048Z,165.98
2023-02-15T21:56:22.057Z,185.93
2023-02-15T21:58:50.307Z,160.85
2023-02-15T22:01:23.750Z,124.32
2023-02-15T22:03:52.186Z,175.95
2023-02-15T22:06:20.783Z,178.40
2023-02-15T22:08:49.099Z,105.88
2023-02-15T22:11:20.344Z,200.55
2023-02-15T22:13:49.252Z,167.93
2023-02-15T22:16:21.281Z,142.57
2023-02-15T22:18:50.307Z,194.88
2023-02-15T22:21:19.302Z,214.63
2023-02-15T22:23:48.300Z,156.88
2023-02-15T22:26:22.438Z,249.70
2023-02-15T22:28:51.131Z,149.50
2023-02-15T22:31:23.434Z,226.32
2023-02-15T22:33:51.727Z,106.70
2023-02-15T22:36:24.898Z,106.45
2023-02-15T22:41:22.542Z,231.80
2023-02-15T22:43:51.079Z,148.50
2023-02-15T22:46:23.561Z,122.15
2023-02-15T22:48:52.518Z,164.20
2023-02-15T22:51:23.450Z,121.85
2023-02-15T22:53:53.804Z,201.60
2023-02-15T22:56:27.200Z,158.43
2023-02-15T22:59:00.766Z,204.02
2023-02-15T23:01:33.792Z,184.38
2023-02-15T23:04:03.976Z,185.90
2023-02-15T23:06:32.782Z,125.05
2023-02-15T23:09:01.392Z,129.98
2023-02-15T23:11:29.878Z,167.07
2023-02-15T23:13:58.132Z,142.02
2023-02-15T23:16:26.388Z,196.05
2023-02-15T23:18:55.991Z,153.95
2023-02-15T23:21:26.685Z,169.45
2023-02-15T23:23:58.620Z,176.10
2023-02-15T23:26:28.857Z,168.60
2023-02-15T23:28:58.936Z,161.07
2023-02-15T23:31:30.349Z,226.25
2023-02-15T23:34:02.558Z,207.32
2023-02-15T23:36:32.440Z,323.20
2023-02-15T23:39:25.985Z,271.83
2023-02-15T23:41:53.239Z,171.00
2023-02-15T23:44:21.467Z,149.68
2023-02-15T23:46:51.087Z,224.88
2023-02-15T23:49:21.494Z,184.38
2023-02-15T23:51:51.830Z,234.60
2023-02-15T23:54:21.811Z,194.00
2023-02-15T23:56:52.494Z,166.93
2023-02-15T23:59:24.149Z,131.43
